createdAt,value
2018-12-31T00:01:36.034Z,13.87
2018-12-31T00:04:04.991Z,9.33
2018-12-31T00:06:33.998Z,15.23
2018-12-31T00:09:03.512Z,8.70
2018-12-31T00:11:32.429Z,9.00
2018-12-31T00:14:01.410Z,12.27
2018-12-31T00:16:30.341Z,13.57
2018-12-31T00:18:59.301Z,10.73
2018-12-31T00:21:28.308Z,13.27
2018-12-31T00:23:57.359Z,14.07
2018-12-31T00:26:26.303Z,11.30
2018-12-31T00:28:55.947Z,15.40
2018-12-31T00:31:24.902Z,15.60
2018-12-31T00:33:53.838Z,14.70
2018-12-31T00:36:22.815Z,12.37
2018-12-31T00:38:51.679Z,7.60
2018-12-31T00:41:20.635Z,9.30
2018-12-31T00:43:49.547Z,11.60
2018-12-31T00:46:18.504Z,17.00
2018-12-31T00:48:47.424Z,14.37
2018-12-31T00:51:16.671Z,9.93
2018-12-31T00:53:45.596Z,13.00
2018-12-31T00:56:14.590Z,8.13
2018-12-31T00:58:43.514Z,12.67
2018-12-31T01:01:12.462Z,13.80
2018-12-31T01:03:41.403Z,15.33
2018-12-31T01:06:12.894Z,14.00
2018-12-31T01:08:41.831Z,12.50
2018-12-31T01:11:11.176Z,15.43
2018-12-31T01:13:40.862Z,16.90
2018-12-31T01:16:10.103Z,9.97
2018-12-31T01:18:39.075Z,12.67
2018-12-31T01:21:08.443Z,19.17
2018-12-31T01:23:37.416Z,14.27
2018-12-31T01:26:06.402Z,12.60
2018-12-31T01:28:35.764Z,17.30
2018-12-31T01:31:04.758Z,13.00
2018-12-31T01:33:34.575Z,9.27
2018-12-31T01:36:03.595Z,17.33
2018-12-31T01:38:32.544Z,17.80
2018-12-31T01:41:01.557Z,10.93
2018-12-31T01:43:30.486Z,15.27
2018-12-31T01:45:59.827Z,19.53
2018-12-31T01:48:28.787Z,10.67
2018-12-31T01:50:57.948Z,11.93
2018-12-31T01:53:26.887Z,15.67
2018-12-31T01:55:55.799Z,22.07
2018-12-31T01:58:24.759Z,9.23
2018-12-31T02:00:53.727Z,14.33
2018-12-31T02:03:22.654Z,15.70
2018-12-31T02:05:51.574Z,13.63
2018-12-31T02:08:20.514Z,14.30
2018-12-31T02:10:49.491Z,17.10
2018-12-31T02:13:18.534Z,12.63
2018-12-31T02:15:47.471Z,21.47
2018-12-31T02:18:16.462Z,18.60
2018-12-31T02:20:45.439Z,20.80
2018-12-31T02:23:14.391Z,17.07
2018-12-31T02:25:43.317Z,16.70
2018-12-31T02:28:12.358Z,23.63
2018-12-31T02:30:41.300Z,15.33
2018-12-31T02:33:10.338Z,22.03
2018-12-31T02:35:39.274Z,22.80
2018-12-31T02:38:08.264Z,22.13
2018-12-31T02:40:37.531Z,26.70
2018-12-31T02:43:06.477Z,24.43
2018-12-31T02:45:35.425Z,21.13
2018-12-31T02:48:04.418Z,21.53
2018-12-31T02:50:33.440Z,24.17
2018-12-31T02:53:02.398Z,23.57
2018-12-31T02:55:31.920Z,22.60
2018-12-31T02:58:00.866Z,20.07
2018-12-31T03:00:29.897Z,24.97
2018-12-31T03:02:58.931Z,22.57
2018-12-31T03:05:28.126Z,23.50
2018-12-31T03:07:57.219Z,21.17
2018-12-31T03:10:26.141Z,18.03
2018-12-31T03:12:55.119Z,23.30
2018-12-31T03:15:24.093Z,17.60
2018-12-31T03:17:53.052Z,23.13
2018-12-31T03:20:22.278Z,18.77
2018-12-31T03:22:51.568Z,18.40
2018-12-31T03:25:20.514Z,23.23
2018-12-31T03:27:49.475Z,22.73
2018-12-31T03:30:18.438Z,22.07
2018-12-31T03:32:48.985Z,22.63
2018-12-31T03:35:17.945Z,24.00
2018-12-31T03:37:46.871Z,23.70
2018-12-31T03:40:15.884Z,23.67
2018-12-31T03:42:44.879Z,26.00
2018-12-31T03:45:13.888Z,20.40
2018-12-31T03:47:43.156Z,28.03
2018-12-31T03:50:12.148Z,28.50
2018-12-31T03:52:41.191Z,22.37
2018-12-31T03:55:10.214Z,22.07
2018-12-31T03:57:39.422Z,24.63
2018-12-31T04:00:08.840Z,26.67
2018-12-31T04:02:37.849Z,30.07
2018-12-31T04:05:06.883Z,27.67
2018-12-31T04:07:35.811Z,28.67
2018-12-31T04:10:04.916Z,21.17
2018-12-31T04:12:33.849Z,24.90
2018-12-31T04:15:02.854Z,21.80
2018-12-31T04:17:31.839Z,20.77
2018-12-31T04:20:00.856Z,21.83
2018-12-31T04:22:29.958Z,27.20
2018-12-31T04:24:59.196Z,19.00
2018-12-31T04:27:28.153Z,24.10
2018-12-31T04:29:57.094Z,21.67
2018-12-31T04:32:26.162Z,22.33
2018-12-31T04:34:55.148Z,21.80
2018-12-31T04:37:24.134Z,23.23
2018-12-31T04:39:53.391Z,26.17
2018-12-31T04:42:22.422Z,23.77
2018-12-31T04:44:51.365Z,24.07
2018-12-31T04:47:20.399Z,17.10
2018-12-31T04:49:49.378Z,21.10
2018-12-31T04:52:18.380Z,22.00
2018-12-31T04:54:47.387Z,21.60
2018-12-31T04:57:16.354Z,23.07
2018-12-31T04:59:46.576Z,24.20
2018-12-31T05:02:15.518Z,19.50
2018-12-31T05:04:44.474Z,19.67
2018-12-31T05:07:13.422Z,21.63
2018-12-31T05:09:42.406Z,18.30
2018-12-31T05:12:12.628Z,18.97
2018-12-31T05:14:41.666Z,20.63
2018-12-31T05:17:10.904Z,24.60
2018-12-31T05:19:39.898Z,19.07
2018-12-31T05:22:08.859Z,18.57
2018-12-31T05:24:37.787Z,20.37
2018-12-31T05:27:06.828Z,19.40
2018-12-31T05:29:35.842Z,21.10
2018-12-31T05:32:04.894Z,17.87
2018-12-31T05:34:34.135Z,23.57
2018-12-31T05:37:03.327Z,28.43
2018-12-31T05:39:32.275Z,16.93
2018-12-31T05:42:01.254Z,20.50
2018-12-31T05:44:30.257Z,19.30
2018-12-31T05:46:59.195Z,17.27
2018-12-31T05:49:28.462Z,18.57
2018-12-31T05:51:57.388Z,16.30
2018-12-31T05:54:26.368Z,18.57
2018-12-31T05:56:55.320Z,22.50
2018-12-31T05:59:24.287Z,24.97
2018-12-31T06:01:53.257Z,22.03
2018-12-31T06:04:22.209Z,22.77
2018-12-31T06:06:51.601Z,28.37
2018-12-31T06:09:20.830Z,24.33
2018-12-31T06:11:49.839Z,22.90
2018-12-31T06:14:18.825Z,24.30
2018-12-31T06:16:47.826Z,26.47
2018-12-31T06:19:16.810Z,19.27
2018-12-31T06:21:45.810Z,21.97
2018-12-31T06:24:14.863Z,18.80
2018-12-31T06:26:43.796Z,21.73
2018-12-31T06:29:12.845Z,23.83
2018-12-31T06:31:41.875Z,28.70
2018-12-31T06:34:10.842Z,22.90
2018-12-31T06:36:39.750Z,26.73
2018-12-31T06:39:09.041Z,24.40
2018-12-31T06:41:37.999Z,26.23
2018-12-31T06:44:07.241Z,24.53
2018-12-31T06:46:36.208Z,25.53
2018-12-31T06:49:05.242Z,32.20
2018-12-31T06:51:34.204Z,27.67
2018-12-31T06:54:03.227Z,29.03
2018-12-31T06:56:32.295Z,34.07
2018-12-31T06:59:01.348Z,32.53
2018-12-31T07:01:30.295Z,28.83
2018-12-31T07:03:59.262Z,33.77
2018-12-31T07:06:28.238Z,40.33
2018-12-31T07:08:57.259Z,35.53
2018-12-31T07:11:26.210Z,32.90
2018-12-31T07:13:55.309Z,38.53
2018-12-31T07:16:24.194Z,38.50
2018-12-31T07:18:53.271Z,27.93
2018-12-31T07:21:22.251Z,36.87
2018-12-31T07:23:51.222Z,31.37
2018-12-31T07:26:20.260Z,33.87
2018-12-31T07:28:49.202Z,32.77
2018-12-31T07:31:18.171Z,36.80
2018-12-31T07:33:47.390Z,36.10
2018-12-31T07:36:16.453Z,48.37
2018-12-31T07:38:45.431Z,36.77
2018-12-31T07:41:14.562Z,43.97
2018-12-31T07:43:43.568Z,36.03
2018-12-31T07:46:12.510Z,38.20
2018-12-31T07:48:41.378Z,52.60
2018-12-31T07:51:10.430Z,43.77
2018-12-31T07:53:39.312Z,52.90
2018-12-31T07:56:08.295Z,52.40
2018-12-31T07:58:37.280Z,46.07
2018-12-31T08:01:06.598Z,42.23
2018-12-31T08:03:35.591Z,52.57
2018-12-31T08:06:04.623Z,48.47
2018-12-31T08:08:33.638Z,51.30
2018-12-31T08:11:02.626Z,42.27
2018-12-31T08:13:31.659Z,43.23
2018-12-31T08:16:00.609Z,40.40
2018-12-31T08:18:29.491Z,42.60
2018-12-31T08:20:58.538Z,36.37
2018-12-31T08:23:27.878Z,32.57
2018-12-31T08:25:57.096Z,39.03
2018-12-31T08:28:26.039Z,37.80
2018-12-31T08:30:54.995Z,42.60
2018-12-31T08:33:24.007Z,38.93
2018-12-31T08:35:53.456Z,36.50
2018-12-31T08:38:22.406Z,54.70
2018-12-31T08:40:51.355Z,45.43
2018-12-31T08:43:20.382Z,42.17
2018-12-31T08:45:49.432Z,46.53
2018-12-31T08:48:18.402Z,55.20
2018-12-31T08:50:47.623Z,48.40
2018-12-31T08:53:16.563Z,45.77
2018-12-31T08:55:45.543Z,36.90
2018-12-31T08:58:14.575Z,44.17
2018-12-31T09:00:43.513Z,38.87
2018-12-31T09:03:15.697Z,36.27
2018-12-31T09:05:44.689Z,40.33
2018-12-31T09:08:13.561Z,41.47
2018-12-31T09:10:42.890Z,44.13
2018-12-31T09:13:11.903Z,51.07
2018-12-31T09:15:40.901Z,33.33
2018-12-31T09:18:10.156Z,44.97
2018-12-31T09:20:39.103Z,34.33
2018-12-31T09:23:08.051Z,38.23
2018-12-31T09:25:37.083Z,40.70
2018-12-31T09:28:06.088Z,36.73
2018-12-31T09:30:34.988Z,29.37
2018-12-31T09:33:04.071Z,33.00
2018-12-31T09:35:33.050Z,32.40
2018-12-31T09:38:01.993Z,31.70
2018-12-31T09:40:31.075Z,28.10
2018-12-31T09:43:00.051Z,26.20
2018-12-31T09:45:29.310Z,29.67
2018-12-31T09:47:58.186Z,25.87
2018-12-31T09:50:27.227Z,24.10
2018-12-31T09:52:56.170Z,23.03
2018-12-31T09:55:25.129Z,30.73
2018-12-31T09:57:54.501Z,28.10
2018-12-31T10:00:23.905Z,24.13
2018-12-31T10:02:52.975Z,24.63
2018-12-31T10:05:21.940Z,24.33
2018-12-31T10:07:50.891Z,19.97
2018-12-31T10:10:19.835Z,18.97
2018-12-31T10:12:48.758Z,21.03
2018-12-31T10:15:17.721Z,19.47
2018-12-31T10:17:46.659Z,17.77
2018-12-31T10:20:15.918Z,18.33
2018-12-31T10:22:44.856Z,17.87
2018-12-31T10:25:13.926Z,16.40
2018-12-31T10:27:42.790Z,16.20
2018-12-31T10:30:11.805Z,20.70
2018-12-31T10:32:41.059Z,18.27
2018-12-31T10:35:10.102Z,18.10
2018-12-31T10:37:39.065Z,22.47
2018-12-31T10:40:09.100Z,19.33
2018-12-31T10:42:38.454Z,22.77
2018-12-31T10:45:07.552Z,20.83
2018-12-31T10:47:36.494Z,19.50
2018-12-31T10:50:05.570Z,15.30
2018-12-31T10:52:34.530Z,19.37
2018-12-31T10:55:03.469Z,22.50
2018-12-31T10:57:32.423Z,31.17
2018-12-31T11:00:01.679Z,40.80
2018-12-31T11:02:30.636Z,40.00
2018-12-31T11:04:59.621Z,20.47
2018-12-31T11:07:28.825Z,23.10
2018-12-31T11:09:57.759Z,27.43
2018-12-31T11:12:26.698Z,15.97
2018-12-31T11:14:55.638Z,83.60
2018-12-31T11:17:24.575Z,19.93
2018-12-31T11:19:53.964Z,19.27
2018-12-31T11:22:22.918Z,18.80
2018-12-31T11:24:52.157Z,17.83
2018-12-31T11:27:21.103Z,20.57
2018-12-31T11:29:50.291Z,29.07
2018-12-31T11:32:19.225Z,17.47
2018-12-31T11:34:48.094Z,19.03
2018-12-31T11:37:17.346Z,32.10
2018-12-31T11:39:46.567Z,38.03
2018-12-31T11:42:15.531Z,19.17
2018-12-31T11:44:44.453Z,41.23
2018-12-31T11:47:13.371Z,13.07
2018-12-31T11:49:42.302Z,19.77
2018-12-31T11:52:11.244Z,34.63
2018-12-31T11:54:40.209Z,64.60
2018-12-31T11:57:09.167Z,33.33
2018-12-31T11:59:38.423Z,14.87
2018-12-31T12:02:07.629Z,17.83
2018-12-31T12:04:36.566Z,16.97
2018-12-31T12:07:05.555Z,24.67
2018-12-31T12:09:34.842Z,13.03
2018-12-31T12:12:03.817Z,17.27
2018-12-31T12:14:32.753Z,16.20
2018-12-31T12:17:01.663Z,15.60
2018-12-31T12:19:30.680Z,16.20
2018-12-31T12:21:59.764Z,15.63
2018-12-31T12:24:28.799Z,26.80
2018-12-31T12:26:57.896Z,25.90
2018-12-31T12:29:26.903Z,22.30
2018-12-31T12:31:55.864Z,25.17
2018-12-31T12:34:25.143Z,14.47
2018-12-31T12:36:54.115Z,15.63
2018-12-31T12:39:23.159Z,14.33
2018-12-31T12:41:52.145Z,13.60
2018-12-31T12:44:21.143Z,13.33
2018-12-31T12:46:50.641Z,14.97
2018-12-31T12:49:19.581Z,14.97
2018-12-31T12:51:49.010Z,19.13
2018-12-31T12:54:18.295Z,17.73
2018-12-31T12:56:47.210Z,15.80
2018-12-31T12:59:16.161Z,15.83
2018-12-31T13:01:45.102Z,19.03
2018-12-31T13:04:14.266Z,12.67
2018-12-31T13:06:43.183Z,18.57
2018-12-31T13:09:12.131Z,18.17
2018-12-31T13:11:41.057Z,16.00
2018-12-31T13:14:10.016Z,16.40
2018-12-31T13:16:40.374Z,19.47
2018-12-31T13:19:09.372Z,13.33
2018-12-31T13:21:38.339Z,18.77
2018-12-31T13:24:07.926Z,21.60
2018-12-31T13:26:43.361Z,15.60
2018-12-31T13:29:07.571Z,10.03
2018-12-31T13:31:36.914Z,15.57
2018-12-31T13:34:05.927Z,13.90
2018-12-31T13:36:34.992Z,9.53
2018-12-31T13:39:05.054Z,11.93
2018-12-31T13:41:34.219Z,10.53
2018-12-31T13:44:03.536Z,14.40
2018-12-31T13:46:32.503Z,11.03
2018-12-31T13:49:01.430Z,10.97
2018-12-31T13:51:30.412Z,14.97
2018-12-31T13:53:59.423Z,9.40
2018-12-31T13:56:28.393Z,10.37
2018-12-31T13:58:57.327Z,12.53
2018-12-31T14:01:26.284Z,11.07
2018-12-31T14:03:55.355Z,10.53
2018-12-31T14:06:24.318Z,12.83
2018-12-31T14:08:53.250Z,11.77
2018-12-31T14:11:22.207Z,9.40
2018-12-31T14:13:51.151Z,9.43
2018-12-31T14:16:20.110Z,11.93
2018-12-31T14:18:49.058Z,10.53
2018-12-31T14:21:18.448Z,9.03
2018-12-31T14:23:47.386Z,8.80
2018-12-31T14:26:16.319Z,11.33
2018-12-31T14:28:45.487Z,9.03
2018-12-31T14:31:14.490Z,10.67
2018-12-31T14:33:43.438Z,12.00
2018-12-31T14:36:12.390Z,10.57
2018-12-31T14:38:41.367Z,12.63
2018-12-31T14:41:11.266Z,16.00
2018-12-31T14:43:40.359Z,10.53
2018-12-31T14:46:09.667Z,14.47
2018-12-31T14:48:38.948Z,10.57
2018-12-31T14:51:07.923Z,11.37
2018-12-31T14:53:36.877Z,9.87
2018-12-31T14:56:05.838Z,13.43
2018-12-31T14:58:34.849Z,13.43
2018-12-31T15:01:03.789Z,14.40
2018-12-31T15:03:32.757Z,12.73
2018-12-31T15:06:01.694Z,14.33
2018-12-31T15:08:30.653Z,9.47
2018-12-31T15:10:59.649Z,11.17
2018-12-31T15:13:28.592Z,9.67
2018-12-31T15:15:57.789Z,13.43
2018-12-31T15:18:27.197Z,16.40
2018-12-31T15:20:56.166Z,11.67
2018-12-31T15:23:25.186Z,13.80
2018-12-31T15:25:54.551Z,10.57
2018-12-31T15:28:23.875Z,15.27
2018-12-31T15:30:53.315Z,13.07
2018-12-31T15:33:22.364Z,12.90
2018-12-31T15:35:51.306Z,11.47
2018-12-31T15:38:20.347Z,14.10
2018-12-31T15:40:49.346Z,13.73
2018-12-31T15:43:18.484Z,12.50
2018-12-31T15:45:47.515Z,12.53
2018-12-31T15:48:16.619Z,17.70
2018-12-31T15:50:45.574Z,13.40
2018-12-31T15:53:14.799Z,13.10
2018-12-31T15:55:43.750Z,21.97
2018-12-31T15:58:13.300Z,17.83
2018-12-31T16:00:42.369Z,17.97
2018-12-31T16:03:11.371Z,20.80
2018-12-31T16:05:40.324Z,17.83
2018-12-31T16:08:09.267Z,14.97
2018-12-31T16:10:38.231Z,14.53
2018-12-31T16:13:07.170Z,13.30
2018-12-31T16:15:36.270Z,16.90
2018-12-31T16:18:05.879Z,13.07
2018-12-31T16:20:34.986Z,14.43
2018-12-31T16:23:03.943Z,17.00
2018-12-31T16:25:33.007Z,16.63
2018-12-31T16:28:01.947Z,15.07
2018-12-31T16:30:30.890Z,13.60
2018-12-31T16:32:59.876Z,15.37
2018-12-31T16:35:28.826Z,17.40
2018-12-31T16:37:58.089Z,10.83
2018-12-31T16:40:27.126Z,14.43
2018-12-31T16:42:56.038Z,12.33
2018-12-31T16:45:28.186Z,14.93
2018-12-31T16:47:57.114Z,20.83
2018-12-31T16:50:26.108Z,17.67
2018-12-31T16:52:56.177Z,18.23
2018-12-31T16:55:25.150Z,19.00
2018-12-31T16:57:54.366Z,17.97
2018-12-31T17:00:23.374Z,19.97
2018-12-31T17:02:52.358Z,17.90
2018-12-31T17:05:21.337Z,18.43
2018-12-31T17:07:50.345Z,18.73
2018-12-31T17:10:19.494Z,21.87
2018-12-31T17:12:48.402Z,19.20
2018-12-31T17:15:17.356Z,22.23
2018-12-31T17:17:46.317Z,20.80
2018-12-31T17:20:15.276Z,19.73
2018-12-31T17:22:44.262Z,17.47
2018-12-31T17:25:13.172Z,18.00
2018-12-31T17:27:42.106Z,19.30
2018-12-31T17:30:11.178Z,22.03
2018-12-31T17:32:40.440Z,20.53
2018-12-31T17:35:09.358Z,24.23
2018-12-31T17:37:41.174Z,22.70
2018-12-31T17:40:10.111Z,23.53
2018-12-31T17:42:39.049Z,21.97
2018-12-31T17:45:08.135Z,22.27
2018-12-31T17:47:37.096Z,23.10
2018-12-31T17:50:06.382Z,21.00
2018-12-31T17:52:35.358Z,22.80
2018-12-31T17:55:04.457Z,24.50
2018-12-31T17:57:33.445Z,27.30
2018-12-31T18:00:02.438Z,24.10
2018-12-31T18:02:31.382Z,24.07
2018-12-31T18:05:00.407Z,28.63
2018-12-31T18:07:29.356Z,23.43
2018-12-31T18:09:58.373Z,25.03
2018-12-31T18:12:27.676Z,24.67
2018-12-31T18:14:56.679Z,25.47
2018-12-31T18:17:25.695Z,28.33
2018-12-31T18:19:54.790Z,26.80
2018-12-31T18:22:23.930Z,29.27
2018-12-31T18:24:53.147Z,27.40
2018-12-31T18:27:22.418Z,29.30
2018-12-31T18:29:51.618Z,27.30
2018-12-31T18:32:21.304Z,28.03
2018-12-31T18:34:50.241Z,28.83
2018-12-31T18:37:19.306Z,26.37
2018-12-31T18:39:49.415Z,28.60
2018-12-31T18:42:18.740Z,26.23
2018-12-31T18:44:48.470Z,28.60
2018-12-31T18:47:17.927Z,29.93
2018-12-31T18:49:46.911Z,29.53
2018-12-31T18:52:16.149Z,26.40
2018-12-31T18:54:45.083Z,29.67
2018-12-31T18:57:14.066Z,26.97
2018-12-31T18:59:43.290Z,27.60
2018-12-31T19:02:12.363Z,29.87
2018-12-31T19:04:41.406Z,29.30
2018-12-31T19:07:10.382Z,27.97
2018-12-31T19:09:39.622Z,25.27
2018-12-31T19:12:08.551Z,26.20
2018-12-31T19:14:37.934Z,28.10
2018-12-31T19:17:07.165Z,29.27
2018-12-31T19:19:36.154Z,29.80
2018-12-31T19:22:05.143Z,28.30
2018-12-31T19:24:34.223Z,28.20
2018-12-31T19:27:03.618Z,25.33
2018-12-31T19:29:32.962Z,28.33
2018-12-31T19:32:01.912Z,26.73
2018-12-31T19:34:30.976Z,25.40
2018-12-31T19:37:00.000Z,30.03
2018-12-31T19:39:28.990Z,25.50
2018-12-31T19:41:58.334Z,23.47
2018-12-31T19:44:27.382Z,23.10
2018-12-31T19:46:56.239Z,22.40
2018-12-31T19:49:25.394Z,22.23
2018-12-31T19:51:54.848Z,27.87
2018-12-31T19:54:26.049Z,65.00
2018-12-31T19:56:55.003Z,24.80
2018-12-31T19:59:24.105Z,49.43
2018-12-31T20:01:53.460Z,31.07
2018-12-31T20:04:24.003Z,21.77
2018-12-31T20:07:01.057Z,21.93
2018-12-31T20:09:24.049Z,22.07
2018-12-31T20:11:53.132Z,19.13
2018-12-31T20:14:22.807Z,22.07
2018-12-31T20:16:52.303Z,22.03
2018-12-31T20:19:21.417Z,22.27
2018-12-31T20:21:50.383Z,23.07
2018-12-31T20:24:19.636Z,21.37
2018-12-31T20:26:48.597Z,27.13
2018-12-31T20:29:17.523Z,23.33
2018-12-31T20:31:46.572Z,25.40
2018-12-31T20:34:15.498Z,27.23
2018-12-31T20:36:44.918Z,25.17
2018-12-31T20:39:13.825Z,27.57
2018-12-31T20:41:42.770Z,24.77
2018-12-31T20:44:11.778Z,24.97
2018-12-31T20:46:41.654Z,25.37
2018-12-31T20:49:10.595Z,25.43
2018-12-31T20:51:40.543Z,25.93
2018-12-31T20:54:11.530Z,28.40
2018-12-31T20:56:41.064Z,25.20
2018-12-31T20:59:10.843Z,27.63
2018-12-31T21:01:40.130Z,29.60
2018-12-31T21:04:10.495Z,29.37
2018-12-31T21:06:39.444Z,31.37
2018-12-31T21:09:09.086Z,32.20
2018-12-31T21:11:38.719Z,32.07
2018-12-31T21:14:07.825Z,31.20
2018-12-31T21:16:36.780Z,33.57
2018-12-31T21:19:05.809Z,33.77
2018-12-31T21:21:34.847Z,32.57
2018-12-31T21:24:04.536Z,34.67
2018-12-31T21:26:33.578Z,35.93
2018-12-31T21:29:02.855Z,37.93
2018-12-31T21:31:32.166Z,36.47
2018-12-31T21:34:02.915Z,35.73
2018-12-31T21:36:32.705Z,41.10
2018-12-31T21:39:01.745Z,37.40
2018-12-31T21:41:30.679Z,43.27
2018-12-31T21:43:59.703Z,34.70
2018-12-31T21:46:28.621Z,38.30
2018-12-31T21:48:57.568Z,39.03
2018-12-31T21:51:26.576Z,39.33
2018-12-31T21:53:55.808Z,41.20
2018-12-31T21:56:24.817Z,39.27
2018-12-31T21:58:53.767Z,40.33
2018-12-31T22:01:22.723Z,36.80
2018-12-31T22:03:51.692Z,35.20
2018-12-31T22:06:22.936Z,118.90
2018-12-31T22:08:51.967Z,42.13
2018-12-31T22:11:20.946Z,39.03
2018-12-31T22:13:50.798Z,37.00
2018-12-31T22:16:20.024Z,37.63
2018-12-31T22:18:49.277Z,42.93
2018-12-31T22:21:19.225Z,35.20
2018-12-31T22:23:49.786Z,35.57
2018-12-31T22:26:18.718Z,36.13
2018-12-31T22:28:47.651Z,38.63
2018-12-31T22:31:16.612Z,36.13
2018-12-31T22:33:45.580Z,34.70
2018-12-31T22:36:22.410Z,31.60
2018-12-31T22:38:51.671Z,31.77
2018-12-31T22:41:20.662Z,34.63
2018-12-31T22:43:49.602Z,31.80
2018-12-31T22:46:18.530Z,34.20
2018-12-31T22:48:47.582Z,34.93
2018-12-31T22:51:16.586Z,35.17
2018-12-31T22:53:45.576Z,31.27
2018-12-31T22:56:14.550Z,31.07
2018-12-31T22:58:43.567Z,35.17
2018-12-31T23:01:15.062Z,32.83
2018-12-31T23:03:45.082Z,31.20
2018-12-31T23:06:14.210Z,80.13
2018-12-31T23:08:43.178Z,73.50
2018-12-31T23:11:12.227Z,34.63
2018-12-31T23:13:42.135Z,28.83
2018-12-31T23:16:19.045Z,33.10
2018-12-31T23:18:48.011Z,34.63
2018-12-31T23:21:16.995Z,31.87
2018-12-31T23:23:46.248Z,31.90
2018-12-31T23:26:15.473Z,36.50
2018-12-31T23:28:52.299Z,74.93
2018-12-31T23:31:15.179Z,58.23
2018-12-31T23:33:44.062Z,42.27
2018-12-31T23:36:13.030Z,46.63
2018-12-31T23:38:42.292Z,54.03
2018-12-31T23:41:11.430Z,46.40
2018-12-31T23:43:40.386Z,43.60
2018-12-31T23:46:09.395Z,46.97
2018-12-31T23:48:38.341Z,50.50
2018-12-31T23:51:07.282Z,54.37
2018-12-31T23:53:36.272Z,57.07
2018-12-31T23:56:05.475Z,61.33
2018-12-31T23:58:34.428Z,61.53
